createdAt,value
2022-08-11T00:00:00.684Z,996.17
2022-08-11T00:01:00.693Z,996.16
2022-08-11T00:02:00.660Z,996.17
2022-08-11T00:03:00.688Z,996.19
2022-08-11T00:04:00.634Z,996.17
2022-08-11T00:05:00.627Z,996.21
2022-08-11T00:06:00.615Z,996.14
2022-08-11T00:07:00.621Z,996.18
2022-08-11T00:08:00.588Z,996.19
2022-08-11T00:09:01.603Z,996.20
2022-08-11T00:10:00.571Z,996.13
2022-08-11T00:11:00.566Z,996.19
2022-08-11T00:12:00.561Z,996.15
2022-08-11T00:13:00.569Z,996.16
2022-08-11T00:14:00.570Z,996.13
2022-08-11T00:15:00.541Z,996.15
2022-08-11T00:16:00.538Z,996.12
2022-08-11T00:17:00.522Z,996.14
2022-08-11T00:18:00.523Z,996.13
2022-08-11T00:19:00.489Z,996.16
2022-08-11T00:20:15.230Z,996.10
2022-08-11T00:21:00.541Z,996.13
2022-08-11T00:22:05.163Z,996.23
2022-08-11T00:23:01.456Z,996.15
2022-08-11T00:24:00.467Z,996.21
2022-08-11T00:25:02.699Z,996.15
2022-08-11T00:26:01.414Z,996.12
2022-08-11T00:27:00.408Z,996.13
2022-08-11T00:28:00.399Z,996.09
2022-08-11T00:29:00.421Z,996.15
2022-08-11T00:30:00.375Z,996.08
2022-08-11T00:31:00.375Z,996.09
2022-08-11T00:32:00.355Z,996.07
2022-08-11T00:33:00.359Z,996.13
2022-08-11T00:34:00.341Z,996.14
2022-08-11T00:35:51.012Z,996.16
2022-08-11T00:36:01.350Z,996.12
2022-08-11T00:37:00.307Z,996.11
2022-08-11T00:38:00.296Z,996.13
2022-08-11T00:39:00.361Z,996.16
2022-08-11T00:40:00.352Z,996.22
2022-08-11T00:41:32.193Z,996.22
2022-08-11T00:42:00.251Z,996.23
2022-08-11T00:43:00.247Z,996.25
2022-08-11T00:44:00.240Z,996.22
2022-08-11T00:45:00.230Z,996.23
2022-08-11T00:46:00.241Z,996.17
2022-08-11T00:47:00.198Z,996.23
2022-08-11T00:48:01.227Z,996.22
2022-08-11T00:49:00.188Z,996.20
2022-08-11T00:50:00.186Z,996.27
2022-08-11T00:51:00.162Z,996.20
2022-08-11T00:52:05.842Z,996.23
2022-08-11T00:53:01.155Z,996.16
2022-08-11T00:54:00.139Z,996.21
2022-08-11T00:55:00.127Z,996.10
2022-08-11T00:56:00.130Z,996.22
2022-08-11T00:57:00.115Z,996.16
2022-08-11T00:58:00.128Z,996.22
2022-08-11T00:59:00.083Z,996.15
2022-08-11T01:00:00.077Z,996.16
2022-08-11T01:01:00.117Z,996.18
2022-08-11T01:02:00.080Z,996.12
2022-08-11T01:03:00.088Z,996.13
2022-08-11T01:04:00.063Z,996.13
2022-08-11T01:05:00.018Z,996.14
2022-08-11T01:06:00.021Z,996.09
2022-08-11T01:07:00.009Z,996.11
2022-08-11T01:08:03.366Z,996.08
2022-08-11T01:08:59.992Z,996.06
2022-08-11T01:10:03.758Z,996.05
2022-08-11T01:11:01.982Z,996.04
2022-08-11T01:11:59.958Z,996.07
2022-08-11T01:12:59.969Z,996.04
2022-08-11T01:13:59.919Z,996.07
2022-08-11T01:15:00.934Z,996.09
2022-08-11T01:15:59.939Z,996.11
2022-08-11T01:16:59.908Z,996.04
2022-08-11T01:17:59.920Z,996.06
2022-08-11T01:18:59.885Z,996.07
2022-08-11T01:20:45.137Z,996.09
2022-08-11T01:21:00.862Z,996.11
2022-08-11T01:21:59.862Z,996.14
2022-08-11T01:22:59.890Z,996.14
2022-08-11T01:23:59.828Z,996.11
2022-08-11T01:24:59.843Z,996.16
2022-08-11T01:25:59.846Z,996.08
2022-08-11T01:26:59.801Z,996.12
2022-08-11T01:27:59.807Z,996.12
2022-08-11T01:28:59.780Z,996.11
2022-08-11T01:29:59.777Z,996.12
2022-08-11T01:30:59.812Z,996.12
2022-08-11T01:31:59.758Z,996.08
2022-08-11T01:32:59.772Z,996.11
2022-08-11T01:33:59.729Z,996.12
2022-08-11T01:34:59.719Z,996.15
2022-08-11T01:35:59.703Z,996.13
2022-08-11T01:36:59.718Z,996.07
2022-08-11T01:37:59.714Z,996.10
2022-08-11T01:38:59.683Z,996.08
2022-08-11T01:39:59.705Z,996.12
2022-08-11T01:40:59.673Z,996.06
2022-08-11T01:41:59.679Z,996.12
2022-08-11T01:42:59.643Z,996.09
2022-08-11T01:43:59.664Z,996.03
2022-08-11T01:44:59.676Z,996.11
2022-08-11T01:45:59.623Z,996.08
2022-08-11T01:46:59.603Z,996.13
2022-08-11T01:47:59.587Z,996.10
2022-08-11T01:48:59.604Z,996.06
2022-08-11T01:50:09.737Z,996.07
2022-08-11T01:50:59.574Z,996.10
2022-08-11T01:52:00.552Z,996.07
2022-08-11T01:52:59.559Z,996.06
2022-08-11T01:53:59.526Z,996.06
2022-08-11T01:54:59.510Z,996.08
2022-08-11T01:55:59.556Z,996.12
2022-08-11T01:56:59.496Z,996.08
2022-08-11T01:57:59.486Z,996.11
2022-08-11T01:58:59.502Z,996.14
2022-08-11T01:59:59.477Z,996.13
2022-08-11T02:00:59.511Z,996.16
2022-08-11T02:01:59.487Z,996.12
2022-08-11T02:02:59.453Z,996.10
2022-08-11T02:03:59.436Z,996.15
2022-08-11T02:04:59.428Z,996.15
2022-08-11T02:05:59.439Z,996.15
2022-08-11T02:06:59.428Z,996.17
2022-08-11T02:07:59.401Z,996.17
2022-08-11T02:08:59.372Z,996.10
2022-08-11T02:09:59.368Z,996.10
2022-08-11T02:10:59.368Z,996.12
2022-08-11T02:11:59.356Z,996.11
2022-08-11T02:12:59.367Z,996.13
2022-08-11T02:13:59.314Z,996.10
2022-08-11T02:15:05.095Z,996.05
2022-08-11T02:15:59.314Z,996.16
2022-08-11T02:16:59.311Z,996.06
2022-08-11T02:17:59.321Z,996.08
2022-08-11T02:18:59.267Z,996.11
2022-08-11T02:19:59.298Z,996.16
2022-08-11T02:20:59.264Z,996.14
2022-08-11T02:21:59.257Z,996.19
2022-08-11T02:22:59.233Z,996.18
2022-08-11T02:24:05.254Z,996.20
2022-08-11T02:25:00.242Z,996.19
2022-08-11T02:25:59.204Z,996.24
2022-08-11T02:26:59.195Z,996.21
2022-08-11T02:27:59.247Z,996.20
2022-08-11T02:28:59.177Z,996.17
2022-08-11T02:29:59.178Z,996.16
2022-08-11T02:30:59.171Z,996.09
2022-08-11T02:32:14.832Z,996.19
2022-08-11T02:33:01.171Z,996.16
2022-08-11T02:33:59.140Z,996.20
2022-08-11T02:34:59.827Z,996.16
2022-08-11T02:35:59.112Z,996.13
2022-08-11T02:36:59.115Z,996.19
2022-08-11T02:37:59.110Z,996.18
2022-08-11T02:38:59.089Z,996.24
2022-08-11T02:39:59.071Z,996.17
2022-08-11T02:40:59.070Z,996.15
2022-08-11T02:41:59.072Z,996.07
2022-08-11T02:42:59.068Z,996.13
2022-08-11T02:43:59.023Z,996.16
2022-08-11T02:44:59.026Z,996.14
2022-08-11T02:45:59.002Z,996.21
2022-08-11T02:46:59.004Z,996.22
2022-08-11T02:47:59.005Z,996.20
2022-08-11T02:48:58.990Z,996.21
2022-08-11T02:50:02.770Z,996.19
2022-08-11T02:50:59.008Z,996.22
2022-08-11T02:51:58.955Z,996.16
2022-08-11T02:52:58.946Z,996.13
2022-08-11T02:53:58.951Z,996.19
2022-08-11T02:54:58.947Z,996.16
2022-08-11T02:55:58.938Z,996.16
2022-08-11T02:56:58.888Z,996.18
2022-08-11T02:57:58.902Z,996.23
2022-08-11T02:58:58.895Z,996.22
2022-08-11T02:59:58.899Z,996.23
2022-08-11T03:00:58.868Z,996.14
2022-08-11T03:02:00.721Z,996.20
2022-08-11T03:02:58.845Z,996.29
2022-08-11T03:03:58.842Z,996.22
2022-08-11T03:04:58.803Z,996.23
2022-08-11T03:05:58.837Z,996.22
2022-08-11T03:06:58.786Z,996.20
2022-08-11T03:07:58.808Z,996.18
2022-08-11T03:08:58.866Z,996.23
2022-08-11T03:09:58.779Z,996.23
2022-08-11T03:10:58.789Z,996.19
2022-08-11T03:11:58.761Z,996.21
2022-08-11T03:12:58.750Z,996.22
2022-08-11T03:13:58.753Z,996.20
2022-08-11T03:14:58.726Z,996.18
2022-08-11T03:15:58.719Z,996.20
2022-08-11T03:16:58.721Z,996.24
2022-08-11T03:17:58.716Z,996.22
2022-08-11T03:18:58.683Z,996.20
2022-08-11T03:19:58.677Z,996.21
2022-08-11T03:20:58.685Z,996.19
2022-08-11T03:22:03.432Z,996.18
2022-08-11T03:22:59.631Z,996.19
2022-08-11T03:23:58.648Z,996.25
2022-08-11T03:24:58.614Z,996.21
2022-08-11T03:25:58.634Z,996.20
2022-08-11T03:26:58.595Z,996.21
2022-08-11T03:27:58.579Z,996.20
2022-08-11T03:28:58.568Z,996.22
2022-08-11T03:29:58.617Z,996.25
2022-08-11T03:30:58.571Z,996.34
2022-08-11T03:31:58.551Z,996.22
2022-08-11T03:32:58.536Z,996.24
2022-08-11T03:34:01.540Z,996.24
2022-08-11T03:35:00.547Z,996.29
2022-08-11T03:35:58.502Z,996.26
2022-08-11T03:37:15.971Z,996.22
2022-08-11T03:37:59.501Z,996.24
2022-08-11T03:38:58.475Z,996.26
2022-08-11T03:39:58.522Z,996.26
2022-08-11T03:40:58.489Z,996.31
2022-08-11T03:42:04.201Z,996.28
2022-08-11T03:42:59.436Z,996.26
2022-08-11T03:43:58.943Z,996.23
2022-08-11T03:44:58.416Z,996.26
2022-08-11T03:45:58.397Z,996.27
2022-08-11T03:46:58.409Z,996.30
2022-08-11T03:47:58.400Z,996.26
2022-08-11T03:48:58.395Z,996.29
2022-08-11T03:49:58.372Z,996.27
2022-08-11T03:50:58.369Z,996.23
2022-08-11T03:51:58.336Z,996.22
2022-08-11T03:52:58.358Z,996.19
2022-08-11T03:53:58.329Z,996.25
2022-08-11T03:54:58.306Z,996.26
2022-08-11T03:55:58.313Z,996.25
2022-08-11T03:56:58.300Z,996.26
2022-08-11T03:57:58.317Z,996.27
2022-08-11T03:58:58.323Z,996.30
2022-08-11T03:59:58.275Z,996.31
2022-08-11T04:00:58.269Z,996.27
2022-08-11T04:01:58.280Z,996.28
2022-08-11T04:02:58.252Z,996.32
2022-08-11T04:03:58.250Z,996.35
2022-08-11T04:04:58.212Z,996.26
2022-08-11T04:05:58.210Z,996.28
2022-08-11T04:06:58.196Z,996.35
2022-08-11T04:07:58.181Z,996.38
2022-08-11T04:08:58.207Z,996.35
2022-08-11T04:09:58.173Z,996.32
2022-08-11T04:10:59.635Z,996.32
2022-08-11T04:11:58.132Z,996.40
2022-08-11T04:12:58.141Z,996.36
2022-08-11T04:13:58.128Z,996.27
2022-08-11T04:14:58.127Z,996.34
2022-08-11T04:15:58.097Z,996.38
2022-08-11T04:16:58.094Z,996.27
2022-08-11T04:17:58.071Z,996.24
2022-08-11T04:18:58.082Z,996.28
2022-08-11T04:19:58.077Z,996.25
2022-08-11T04:20:58.099Z,996.28
2022-08-11T04:21:58.054Z,996.32
2022-08-11T04:22:58.032Z,996.34
2022-08-11T04:24:36.385Z,996.33
2022-08-11T04:24:58.995Z,996.35
2022-08-11T04:25:58.929Z,996.35
2022-08-11T04:26:57.996Z,996.35
2022-08-11T04:27:57.984Z,996.41
2022-08-11T04:28:58.024Z,996.35
2022-08-11T04:30:05.164Z,996.41
2022-08-11T04:30:57.965Z,996.40
2022-08-11T04:31:57.937Z,996.40
2022-08-11T04:32:57.935Z,996.35
2022-08-11T04:33:57.914Z,996.37
2022-08-11T04:34:57.915Z,996.38
2022-08-11T04:35:57.906Z,996.39
2022-08-11T04:36:57.874Z,996.39
2022-08-11T04:37:57.902Z,996.36
2022-08-11T04:38:57.865Z,996.37
2022-08-11T04:39:57.867Z,996.35
2022-08-11T04:40:57.836Z,996.38
2022-08-11T04:41:57.837Z,996.41
2022-08-11T04:42:57.845Z,996.35
2022-08-11T04:44:05.861Z,996.40
2022-08-11T04:44:58.804Z,996.46
2022-08-11T04:45:57.820Z,996.43
2022-08-11T04:46:57.785Z,996.43
2022-08-11T04:48:03.705Z,996.45
2022-08-11T04:48:58.770Z,996.48
2022-08-11T04:49:57.772Z,996.44
2022-08-11T04:51:08.741Z,996.48
2022-08-11T04:51:58.746Z,996.38
2022-08-11T04:52:57.734Z,996.47
2022-08-11T04:53:57.715Z,996.45
2022-08-11T04:54:57.726Z,996.42
2022-08-11T04:55:57.703Z,996.35
2022-08-11T04:56:57.685Z,996.37
2022-08-11T04:57:57.687Z,996.39
2022-08-11T04:58:57.672Z,996.40
2022-08-11T04:59:57.698Z,996.48
2022-08-11T05:00:57.636Z,996.43
2022-08-11T05:01:58.728Z,996.43
2022-08-11T05:02:57.627Z,996.46
2022-08-11T05:03:57.619Z,996.46
2022-08-11T05:04:57.616Z,996.43
2022-08-11T05:05:57.656Z,996.45
2022-08-11T05:06:57.588Z,996.42
2022-08-11T05:07:57.573Z,996.47
2022-08-11T05:08:57.564Z,996.47
2022-08-11T05:09:57.538Z,996.45
2022-08-11T05:10:57.568Z,996.38
2022-08-11T05:11:57.872Z,996.40
2022-08-11T05:12:57.533Z,996.37
2022-08-11T05:13:57.511Z,996.44
2022-08-11T05:14:57.529Z,996.45
2022-08-11T05:15:57.518Z,996.44
2022-08-11T05:16:57.495Z,996.41
2022-08-11T05:17:57.499Z,996.48
2022-08-11T05:18:57.482Z,996.49
2022-08-11T05:19:57.471Z,996.38
2022-08-11T05:20:58.819Z,996.44
2022-08-11T05:21:57.487Z,996.47
2022-08-11T05:22:57.427Z,996.51
2022-08-11T05:23:57.442Z,996.43
2022-08-11T05:24:57.401Z,996.43
2022-08-11T05:26:08.928Z,996.45
2022-08-11T05:26:58.389Z,996.46
2022-08-11T05:27:57.382Z,996.41
2022-08-11T05:28:57.398Z,996.41
2022-08-11T05:29:57.394Z,996.51
2022-08-11T05:30:57.352Z,996.48
2022-08-11T05:31:57.353Z,996.54
2022-08-11T05:33:01.736Z,996.48
2022-08-11T05:33:58.343Z,996.44
2022-08-11T05:34:57.337Z,996.49
2022-08-11T05:36:00.920Z,996.49
2022-08-11T05:37:17.160Z,996.45
2022-08-11T05:37:58.326Z,996.38
2022-08-11T05:38:57.268Z,996.43
2022-08-11T05:39:57.311Z,996.43
2022-08-11T05:41:00.146Z,996.40
2022-08-11T05:41:57.253Z,996.46
2022-08-11T05:42:57.247Z,996.35
2022-08-11T05:44:21.076Z,996.45
2022-08-11T05:44:58.220Z,996.40
2022-08-11T05:46:03.617Z,996.35
2022-08-11T05:46:58.197Z,996.44
2022-08-11T05:47:57.190Z,996.41
2022-08-11T05:48:57.212Z,996.44
2022-08-11T05:49:58.019Z,996.38
2022-08-11T05:50:57.166Z,996.43
2022-08-11T05:52:05.880Z,996.43
2022-08-11T05:52:58.140Z,996.40
2022-08-11T05:53:57.123Z,996.42
2022-08-11T05:54:57.129Z,996.43
2022-08-11T05:56:03.117Z,996.44
2022-08-11T05:56:58.156Z,996.49
2022-08-11T05:57:57.098Z,996.43
2022-08-11T05:58:57.104Z,996.42
2022-08-11T05:59:57.085Z,996.37
2022-08-11T06:00:57.120Z,996.37
2022-08-11T06:01:57.203Z,996.42
2022-08-11T06:02:57.074Z,996.38
2022-08-11T06:03:58.712Z,996.35
2022-08-11T06:04:57.038Z,996.43
2022-08-11T06:05:57.014Z,996.43
2022-08-11T06:06:57.031Z,996.36
2022-08-11T06:07:57.427Z,996.45
2022-08-11T06:08:58.050Z,996.41
2022-08-11T06:09:57.059Z,996.39
2022-08-11T06:10:56.967Z,996.35
2022-08-11T06:11:56.969Z,996.38
2022-08-11T06:12:56.965Z,996.40
2022-08-11T06:13:56.968Z,996.41
2022-08-11T06:14:56.966Z,996.37
2022-08-11T06:15:56.943Z,996.38
2022-08-11T06:16:56.923Z,996.37
2022-08-11T06:17:56.919Z,996.32
2022-08-11T06:18:56.895Z,996.33
2022-08-11T06:19:56.881Z,996.32
2022-08-11T06:20:57.914Z,996.36
2022-08-11T06:21:56.885Z,996.30
2022-08-11T06:22:56.863Z,996.29
2022-08-11T06:23:56.868Z,996.26
2022-08-11T06:24:56.854Z,996.30
2022-08-11T06:25:56.866Z,996.26
2022-08-11T06:27:13.722Z,996.29
2022-08-11T06:27:58.837Z,996.27
2022-08-11T06:28:56.804Z,996.21
2022-08-11T06:29:56.813Z,996.20
2022-08-11T06:30:56.812Z,996.18
2022-08-11T06:31:56.789Z,996.20
2022-08-11T06:32:56.779Z,996.27
2022-08-11T06:33:56.796Z,996.18
2022-08-11T06:34:56.770Z,996.20
2022-08-11T06:35:57.779Z,996.18
2022-08-11T06:36:56.740Z,996.13
2022-08-11T06:37:58.794Z,996.12
2022-08-11T06:38:56.732Z,996.13
2022-08-11T06:39:56.788Z,996.15
2022-08-11T06:40:56.736Z,996.15
2022-08-11T06:42:28.681Z,996.14
2022-08-11T06:43:17.696Z,996.20
2022-08-11T06:43:57.595Z,996.09
2022-08-11T06:44:56.683Z,996.06
2022-08-11T06:45:56.719Z,996.08
2022-08-11T06:46:56.686Z,996.08
2022-08-11T06:47:56.661Z,996.05
2022-08-11T06:48:56.639Z,996.05
2022-08-11T06:49:56.636Z,996.09
2022-08-11T06:50:56.647Z,996.02
2022-08-11T06:51:56.718Z,996.04
2022-08-11T06:52:57.609Z,996.00
2022-08-11T06:54:04.437Z,996.06
2022-08-11T06:54:57.630Z,995.98
2022-08-11T06:55:58.955Z,995.97
2022-08-11T06:57:26.254Z,996.04
2022-08-11T06:57:58.565Z,996.08
2022-08-11T06:58:56.551Z,996.01
2022-08-11T06:59:56.548Z,995.99
2022-08-11T07:00:56.527Z,995.97
2022-08-11T07:01:56.625Z,996.00
2022-08-11T07:02:56.530Z,995.97
2022-08-11T07:03:56.508Z,996.04
2022-08-11T07:04:56.507Z,995.97
2022-08-11T07:05:59.133Z,996.02
2022-08-11T07:06:56.498Z,995.95
2022-08-11T07:07:56.462Z,995.93
2022-08-11T07:08:56.484Z,995.95
2022-08-11T07:09:56.448Z,995.84
2022-08-11T07:10:56.447Z,995.88
2022-08-11T07:11:56.441Z,995.89
2022-08-11T07:12:56.433Z,995.83
2022-08-11T07:13:56.432Z,995.84
2022-08-11T07:15:00.047Z,995.83
2022-08-11T07:16:12.979Z,995.89
2022-08-11T07:16:57.408Z,995.82
2022-08-11T07:17:56.373Z,995.83
2022-08-11T07:18:57.400Z,995.87
2022-08-11T07:19:56.789Z,995.83
2022-08-11T07:20:59.968Z,995.87
2022-08-11T07:22:02.999Z,995.77
2022-08-11T07:22:56.355Z,995.84
2022-08-11T07:23:56.358Z,995.87
2022-08-11T07:24:59.737Z,995.78
2022-08-11T07:25:56.315Z,995.80
2022-08-11T07:26:56.321Z,995.78
2022-08-11T07:27:56.292Z,995.79
2022-08-11T07:28:56.277Z,995.79
2022-08-11T07:29:56.304Z,995.77
2022-08-11T07:30:56.298Z,995.80
2022-08-11T07:31:56.290Z,995.78
2022-08-11T07:32:56.259Z,995.77
2022-08-11T07:34:08.408Z,995.76
2022-08-11T07:34:57.256Z,995.75
2022-08-11T07:35:56.257Z,995.81
2022-08-11T07:36:56.226Z,995.77
2022-08-11T07:38:02.303Z,995.75
2022-08-11T07:38:56.223Z,995.79
2022-08-11T07:39:56.272Z,995.72
2022-08-11T07:40:56.188Z,995.73
2022-08-11T07:41:56.204Z,995.70
2022-08-11T07:42:56.164Z,995.74
2022-08-11T07:43:56.150Z,995.75
2022-08-11T07:44:56.143Z,995.72
2022-08-11T07:45:56.136Z,995.70
2022-08-11T07:46:56.153Z,995.74
2022-08-11T07:47:56.126Z,995.73
2022-08-11T07:48:56.111Z,995.72
2022-08-11T07:49:56.100Z,995.72
2022-08-11T07:50:56.334Z,995.76
2022-08-11T07:51:57.114Z,995.75
2022-08-11T07:52:56.072Z,995.71
2022-08-11T07:53:58.737Z,995.71
2022-08-11T07:54:57.080Z,995.80
2022-08-11T07:55:56.052Z,995.67
2022-08-11T07:57:09.234Z,995.70
2022-08-11T07:58:14.498Z,995.74
2022-08-11T07:59:03.412Z,995.76
2022-08-11T08:00:00.266Z,995.78
2022-08-11T08:00:57.012Z,995.77
2022-08-11T08:01:56.015Z,995.74
2022-08-11T08:02:56.014Z,995.76
2022-08-11T08:03:55.972Z,995.70
2022-08-11T08:04:55.987Z,995.69
2022-08-11T08:05:55.975Z,995.67
2022-08-11T08:06:55.955Z,995.73
2022-08-11T08:07:55.972Z,995.70
2022-08-11T08:08:55.941Z,995.63
2022-08-11T08:09:55.938Z,995.65
2022-08-11T08:10:55.932Z,995.67
2022-08-11T08:11:55.909Z,995.68
2022-08-11T08:12:55.922Z,995.67
2022-08-11T08:13:55.898Z,995.71
2022-08-11T08:14:55.885Z,995.74
2022-08-11T08:15:55.890Z,995.70
2022-08-11T08:16:55.874Z,995.74
2022-08-11T08:18:09.217Z,995.66
2022-08-11T08:18:55.841Z,995.67
2022-08-11T08:19:55.837Z,995.74
2022-08-11T08:20:55.858Z,995.78
2022-08-11T08:21:55.846Z,995.75
2022-08-11T08:22:56.834Z,995.77
2022-08-11T08:23:56.503Z,995.71
2022-08-11T08:24:55.790Z,995.69
2022-08-11T08:25:55.787Z,995.68
2022-08-11T08:26:55.800Z,995.70
2022-08-11T08:27:55.765Z,995.65
2022-08-11T08:28:55.765Z,995.67
2022-08-11T08:29:55.749Z,995.67
2022-08-11T08:30:55.799Z,995.60
2022-08-11T08:31:55.754Z,995.61
2022-08-11T08:32:55.714Z,995.65
2022-08-11T08:33:55.945Z,995.59
2022-08-11T08:34:56.705Z,995.59
2022-08-11T08:35:56.247Z,995.66
2022-08-11T08:36:55.694Z,995.67
2022-08-11T08:37:56.176Z,995.63
2022-08-11T08:38:55.697Z,995.60
2022-08-11T08:39:55.707Z,995.57
2022-08-11T08:40:56.573Z,995.61
2022-08-11T08:41:55.648Z,995.59
2022-08-11T08:42:55.645Z,995.61
2022-08-11T08:43:57.762Z,995.64
2022-08-11T08:44:56.618Z,995.64
2022-08-11T08:45:55.629Z,995.60
2022-08-11T08:46:55.624Z,995.55
2022-08-11T08:47:55.596Z,995.55
2022-08-11T08:48:55.596Z,995.54
2022-08-11T08:49:55.600Z,995.62
2022-08-11T08:50:55.565Z,995.60
2022-08-11T08:52:19.406Z,995.59
2022-08-11T08:52:56.565Z,995.56
2022-08-11T08:53:58.402Z,995.57
2022-08-11T08:54:55.568Z,995.52
2022-08-11T08:55:55.529Z,995.46
2022-08-11T08:56:55.519Z,995.46
2022-08-11T08:57:55.518Z,995.57
2022-08-11T08:58:55.545Z,995.55
2022-08-11T08:59:55.504Z,995.48
2022-08-11T09:00:55.528Z,995.56
2022-08-11T09:01:55.502Z,995.52
2022-08-11T09:02:55.502Z,995.49
2022-08-11T09:04:05.413Z,995.51
2022-08-11T09:04:56.479Z,995.58
2022-08-11T09:05:55.471Z,995.58
2022-08-11T09:06:55.454Z,995.57
2022-08-11T09:07:55.432Z,995.46
2022-08-11T09:08:55.436Z,995.57
2022-08-11T09:09:55.397Z,995.54
2022-08-11T09:10:55.402Z,995.54
2022-08-11T09:11:55.417Z,995.43
2022-08-11T09:12:55.381Z,995.50
2022-08-11T09:14:04.819Z,995.52
2022-08-11T09:14:55.370Z,995.45
2022-08-11T09:15:56.508Z,995.41
2022-08-11T09:16:56.364Z,995.41
2022-08-11T09:17:55.327Z,995.44
2022-08-11T09:18:55.335Z,995.38
2022-08-11T09:19:56.731Z,995.33
2022-08-11T09:21:00.210Z,995.46
2022-08-11T09:21:56.298Z,995.39
2022-08-11T09:23:24.224Z,995.39
2022-08-11T09:24:21.892Z,995.39
2022-08-11T09:24:57.288Z,995.40
2022-08-11T09:25:55.286Z,995.34
2022-08-11T09:26:55.262Z,995.37
2022-08-11T09:27:55.252Z,995.37
2022-08-11T09:28:55.238Z,995.39
2022-08-11T09:29:55.220Z,995.38
2022-08-11T09:30:55.222Z,995.29
2022-08-11T09:31:55.235Z,995.34
2022-08-11T09:32:55.179Z,995.33
2022-08-11T09:33:55.246Z,995.25
2022-08-11T09:34:55.181Z,995.31
2022-08-11T09:35:55.170Z,995.33
2022-08-11T09:36:55.186Z,995.25
2022-08-11T09:37:56.411Z,995.23
2022-08-11T09:38:56.145Z,995.27
2022-08-11T09:39:55.208Z,995.31
2022-08-11T09:40:56.330Z,995.29
2022-08-11T09:42:01.184Z,995.22
2022-08-11T09:42:56.181Z,995.19
2022-08-11T09:43:55.098Z,995.22
2022-08-11T09:44:55.113Z,995.30
2022-08-11T09:45:55.080Z,995.30
2022-08-11T09:46:56.123Z,995.27
2022-08-11T09:47:55.071Z,995.33
2022-08-11T09:48:55.090Z,995.28
2022-08-11T09:49:55.072Z,995.30
2022-08-11T09:50:55.032Z,995.29
2022-08-11T09:52:05.107Z,995.26
2022-08-11T09:53:35.212Z,995.25
2022-08-11T09:54:03.511Z,995.32
2022-08-11T09:54:55.030Z,995.24
2022-08-11T09:55:54.996Z,995.21
2022-08-11T09:56:54.965Z,995.19
2022-08-11T09:57:55.973Z,995.13
2022-08-11T09:58:54.974Z,995.05
2022-08-11T10:00:12.383Z,995.12
2022-08-11T10:00:55.026Z,995.14
2022-08-11T10:01:54.990Z,995.12
2022-08-11T10:02:54.934Z,995.15
2022-08-11T10:03:54.946Z,995.13
2022-08-11T10:04:54.934Z,995.16
2022-08-11T10:05:54.909Z,995.10
2022-08-11T10:06:55.387Z,995.07
2022-08-11T10:07:54.906Z,995.11
2022-08-11T10:08:54.865Z,995.07
2022-08-11T10:09:54.862Z,994.99
2022-08-11T10:10:54.849Z,995.12
2022-08-11T10:11:57.993Z,995.11
2022-08-11T10:12:54.859Z,995.06
2022-08-11T10:14:33.682Z,995.02
2022-08-11T10:14:54.837Z,994.99
2022-08-11T10:15:59.846Z,995.01
2022-08-11T10:16:55.801Z,995.09
2022-08-11T10:17:54.782Z,995.04
2022-08-11T10:18:54.778Z,995.05
2022-08-11T10:20:05.435Z,995.05
2022-08-11T10:20:54.758Z,995.11
2022-08-11T10:21:54.742Z,995.07
2022-08-11T10:22:54.759Z,995.00
2022-08-11T10:24:01.437Z,994.98
2022-08-11T10:24:54.767Z,994.93
2022-08-11T10:25:54.697Z,994.96
2022-08-11T10:26:55.002Z,994.91
2022-08-11T10:28:17.443Z,994.87
2022-08-11T10:29:10.033Z,994.86
2022-08-11T10:29:56.703Z,994.87
2022-08-11T10:30:54.689Z,994.74
2022-08-11T10:31:57.704Z,994.85
2022-08-11T10:32:58.549Z,994.80
2022-08-11T10:33:59.041Z,994.75
2022-08-11T10:34:56.357Z,994.76
2022-08-11T10:35:54.652Z,994.74
2022-08-11T10:36:54.614Z,994.89
2022-08-11T10:38:07.890Z,994.78
2022-08-11T10:38:55.601Z,994.82
2022-08-11T10:39:54.683Z,994.76
2022-08-11T10:40:54.566Z,994.75
2022-08-11T10:42:03.461Z,994.81
2022-08-11T10:42:58.244Z,994.78
2022-08-11T10:44:02.849Z,994.78
2022-08-11T10:44:54.563Z,994.79
2022-08-11T10:45:54.562Z,994.74
2022-08-11T10:46:54.528Z,994.74
2022-08-11T10:47:54.508Z,994.76
2022-08-11T10:48:54.490Z,994.78
2022-08-11T10:49:54.493Z,994.75
2022-08-11T10:50:54.499Z,994.71
2022-08-11T10:51:54.507Z,994.71
2022-08-11T10:52:54.467Z,994.64
2022-08-11T10:53:54.448Z,994.68
2022-08-11T10:54:54.452Z,994.62
2022-08-11T10:55:54.452Z,994.59
2022-08-11T10:56:54.440Z,994.85
2022-08-11T10:58:04.749Z,994.68
2022-08-11T10:58:55.398Z,994.63
2022-08-11T10:59:54.382Z,994.55
2022-08-11T11:00:54.408Z,994.54
2022-08-11T11:01:54.384Z,994.59
2022-08-11T11:03:22.229Z,994.51
2022-08-11T11:03:55.349Z,994.58
2022-08-11T11:04:54.352Z,994.54
2022-08-11T11:06:28.937Z,994.50
2022-08-11T11:06:55.323Z,994.47
2022-08-11T11:07:54.325Z,994.48
2022-08-11T11:08:57.589Z,994.43
2022-08-11T11:09:54.297Z,994.35
2022-08-11T11:10:54.282Z,994.44
2022-08-11T11:11:54.256Z,994.51
2022-08-11T11:12:55.287Z,994.54
2022-08-11T11:13:55.062Z,994.54
2022-08-11T11:14:58.778Z,994.43
2022-08-11T11:15:56.234Z,994.45
2022-08-11T11:16:54.219Z,994.50
2022-08-11T11:17:54.236Z,994.41
2022-08-11T11:19:01.221Z,994.47
2022-08-11T11:19:54.185Z,994.45
2022-08-11T11:20:54.179Z,994.37
2022-08-11T11:21:54.158Z,994.41
2022-08-11T11:22:54.162Z,994.36
2022-08-11T11:23:54.173Z,994.47
2022-08-11T11:24:54.157Z,994.49
2022-08-11T11:25:57.121Z,994.44
2022-08-11T11:26:55.123Z,994.39
2022-08-11T11:27:54.110Z,994.41
2022-08-11T11:28:54.114Z,994.41
2022-08-11T11:29:55.095Z,994.44
2022-08-11T11:30:54.081Z,994.44
2022-08-11T11:31:54.093Z,994.43
2022-08-11T11:32:54.063Z,994.32
2022-08-11T11:34:06.407Z,994.36
2022-08-11T11:34:55.070Z,994.35
2022-08-11T11:35:54.036Z,994.40
2022-08-11T11:36:54.075Z,994.38
2022-08-11T11:38:03.610Z,994.38
2022-08-11T11:38:55.035Z,994.36
2022-08-11T11:39:54.142Z,994.30
2022-08-11T11:40:53.991Z,994.31
2022-08-11T11:41:53.975Z,994.27
2022-08-11T11:42:53.992Z,994.28
2022-08-11T11:43:53.962Z,994.34
2022-08-11T11:44:55.983Z,994.29
2022-08-11T11:45:54.964Z,994.27
2022-08-11T11:46:54.083Z,994.35
2022-08-11T11:47:54.029Z,994.35
2022-08-11T11:48:53.909Z,994.34
2022-08-11T11:49:53.900Z,994.41
2022-08-11T11:50:58.140Z,994.30
2022-08-11T11:51:53.944Z,994.34
2022-08-11T11:52:53.861Z,994.30
2022-08-11T11:53:53.858Z,994.22
2022-08-11T11:54:53.959Z,994.19
2022-08-11T11:55:53.866Z,994.22
2022-08-11T11:56:53.837Z,994.23
2022-08-11T11:57:58.630Z,994.20
2022-08-11T11:58:54.818Z,994.21
2022-08-11T11:59:53.839Z,994.14
2022-08-11T12:00:53.793Z,994.12
2022-08-11T12:01:53.801Z,994.15
2022-08-11T12:02:53.802Z,994.13
2022-08-11T12:03:53.872Z,994.11
2022-08-11T12:04:53.821Z,993.80
2022-08-11T12:05:53.752Z,994.05
2022-08-11T12:06:53.731Z,994.08
2022-08-11T12:08:05.191Z,994.17
2022-08-11T12:08:53.758Z,994.07
2022-08-11T12:09:53.718Z,994.06
2022-08-11T12:10:53.728Z,994.02
2022-08-11T12:11:53.691Z,994.02
2022-08-11T12:12:53.682Z,994.06
2022-08-11T12:13:53.736Z,994.06
2022-08-11T12:14:54.688Z,993.95
2022-08-11T12:16:31.389Z,993.93
2022-08-11T12:16:53.653Z,993.98
2022-08-11T12:17:53.634Z,994.02
2022-08-11T12:18:53.637Z,994.03
2022-08-11T12:19:53.649Z,994.05
2022-08-11T12:20:53.614Z,993.98
2022-08-11T12:21:53.601Z,993.93
2022-08-11T12:22:54.612Z,993.90
2022-08-11T12:23:53.595Z,993.86
2022-08-11T12:24:53.614Z,993.93
2022-08-11T12:26:16.240Z,993.83
2022-08-11T12:27:16.330Z,993.72
2022-08-11T12:27:53.564Z,993.93